Silverthorne, CO

10:59 PM MST on December 17, 2014 (GMT -0700)
APRSWXNET Silverthorne CO US | Change Station
CLOSE
Current Station
Personal Weather Station
Location: Silverthorne, CO
Elevation: 8976 ft
Nearby Weather Stations

Elev 8976 ft 39.63 °N, 106.06 °W | Updated 29 minutes ago

Overcast
Overcast
20.0 °F
Feels Like 20.0 °F
N
0.0
Wind Variable Wind from North
Gusts 0.0 mph

Today
High -- | Low -- °F
--% Chance of Precip.
Yesterday
High -- | Low -- °F
Precip. -- in
7:19 AM 4:41 PM
Waning Crescent, 17% visible
Pressure 29.98 in
Visibility 10.0 miles
Clouds Overcast 4600 ft
Dew Point 20.0 °F
Humidity 99%
Rainfall -999.00 in
Snow Depth Not available.
UV 0 out of 12
Pollen .10 out of 12
Air Quality Not available.
Flu Activity Not available.
METAR KLXV 180553Z AUTO 06004KT 10SM OVC046 M11/M12 A2998 RMK AO2 SLP150 60001 T11061122 11056 21106 51007

More Conditions Fewer Conditions

Pressure 29.98 in
Visibility 10.0 miles
Clouds Overcast 4600 ft
Dew Point 20.0 °F
Humidity 99%
Rainfall -999.00 in
Snow Depth Not available.
UV 0 out of 12
Pollen .10 out of 12
Air Quality Not available.
Flu Activity Not available.
METAR KLXV 180553Z AUTO 06004KT 10SM OVC046 M11/M12 A2998 RMK AO2 SLP150 60001 T11061122 11056 21106 51007

More Conditions Fewer Conditions

Nowcast | as of 10:13 PM MST on December 17, 2014

Areas of light snow will continue over the northern Colorado mountains into the early morning hours. Snowfall rates will be a quarter inch per hour or less.

×

10-Day Weather Forecast

Almanac

Astronomy

Dec. 17, 2014 Rise Set
Actual Time
Civil Twilight
Nautical Twilight
Astronomical Twilight
Moon
Length of Visible Light
Length of Day
Tomorrow will be .
, % of the Moon is Illuminated

Today's Extremes

State Highs State Lows

Community

WunderPhotos

Upload Photos

1,778,896 photos uploaded!

WunderBlogs® & News

Nearby

Air Quality

  Air Quality AQ Index Pollutant
Not available.

Snow Depth

Station Depth Elevation

Earthquake Activity

City Distance Mag. Time & Date
Minimum magnitude displayed is 2.5.

Coastal Water Temperatures

Place Temperature

Nearby Weather Stations